createdAt,value
2023-10-12T00:00:21.450Z,21.60
2023-10-12T00:02:52.038Z,21.60
2023-10-12T00:05:21.662Z,21.60
2023-10-12T00:07:51.576Z,21.50
2023-10-12T00:10:23.388Z,21.50
2023-10-12T00:12:55.665Z,21.50
2023-10-12T00:15:26.409Z,21.40
2023-10-12T00:17:57.669Z,21.40
2023-10-12T00:20:35.970Z,21.40
2023-10-12T00:23:15.292Z,21.30
2023-10-12T00:25:49.880Z,21.30
2023-10-12T00:28:21.640Z,21.50
2023-10-12T00:30:56.476Z,21.20
2023-10-12T00:33:25.616Z,21.20
2023-10-12T00:36:02.807Z,21.20
2023-10-12T00:38:33.567Z,21.10
2023-10-12T00:41:05.119Z,21.10
2023-10-12T00:43:38.310Z,21.00
2023-10-12T00:46:22.332Z,21.00
2023-10-12T00:49:11.604Z,20.90
2023-10-12T00:51:40.133Z,20.90
2023-10-12T00:54:11.692Z,20.90
2023-10-12T00:56:44.705Z,20.80
2023-10-12T00:59:15.795Z,20.80
2023-10-12T01:01:44.785Z,20.80
2023-10-12T01:04:17.901Z,20.80
2023-10-12T01:06:48.813Z,20.80
2023-10-12T01:09:21.521Z,20.90
2023-10-12T01:11:55.953Z,20.70
2023-10-12T01:14:27.860Z,20.70
2023-10-12T01:16:59.515Z,21.10
2023-10-12T01:19:32.300Z,20.60
2023-10-12T01:22:09.129Z,20.60
2023-10-12T01:24:37.930Z,20.60
2023-10-12T01:27:06.211Z,20.50
2023-10-12T01:29:37.166Z,20.50
2023-10-12T01:32:25.160Z,20.50
2023-10-12T01:34:54.292Z,20.40
2023-10-12T01:37:25.688Z,20.40
2023-10-12T01:39:58.062Z,20.30
2023-10-12T01:42:39.020Z,20.30
2023-10-12T01:45:17.992Z,20.30
2023-10-12T01:47:46.884Z,20.20
2023-10-12T01:50:15.416Z,20.20
2023-10-12T01:52:47.270Z,20.20
2023-10-12T01:55:23.876Z,20.10
2023-10-12T01:57:54.874Z,20.10
2023-10-12T02:00:27.349Z,20.10
2023-10-12T02:03:12.783Z,20.00
2023-10-12T02:05:47.889Z,20.00
2023-10-12T02:08:21.719Z,20.30
2023-10-12T02:10:59.609Z,19.90
2023-10-12T02:13:34.501Z,19.90
2023-10-12T02:16:03.954Z,19.90
2023-10-12T02:18:33.949Z,19.80
2023-10-12T02:21:12.782Z,19.80
2023-10-12T02:23:56.327Z,19.80
2023-10-12T02:26:36.553Z,19.80
2023-10-12T02:29:19.235Z,19.70
2023-10-12T02:31:57.943Z,19.70
2023-10-12T02:34:29.732Z,19.70
2023-10-12T02:37:17.116Z,19.90
2023-10-12T02:39:48.153Z,19.60
2023-10-12T02:42:23.149Z,19.60
2023-10-12T02:45:08.277Z,19.60
2023-10-12T02:47:41.453Z,19.60
2023-10-12T02:50:31.510Z,19.60
2023-10-12T02:53:09.805Z,19.60
2023-10-12T02:55:47.798Z,20.40
2023-10-12T02:58:24.511Z,20.00
2023-10-12T03:00:57.415Z,19.60
2023-10-12T03:03:34.721Z,19.70
2023-10-12T03:06:08.455Z,19.70
2023-10-12T03:08:49.199Z,19.70
2023-10-12T03:11:21.441Z,19.90
2023-10-12T03:14:01.384Z,19.70
2023-10-12T03:16:35.811Z,19.70
2023-10-12T03:19:18.768Z,19.80
2023-10-12T03:21:49.096Z,19.70
2023-10-12T03:24:18.309Z,19.80
2023-10-12T03:26:50.567Z,19.80
2023-10-12T03:29:21.858Z,19.80
2023-10-12T03:31:58.663Z,19.90
2023-10-12T03:34:54.817Z,19.80
2023-10-12T03:37:38.926Z,19.90
2023-10-12T03:40:33.145Z,20.40
2023-10-12T03:43:10.061Z,20.00
2023-10-12T03:45:50.565Z,20.00
2023-10-12T03:48:47.844Z,20.00
2023-10-12T03:51:26.595Z,20.10
2023-10-12T03:54:12.348Z,20.30
2023-10-12T03:56:41.641Z,20.30
2023-10-12T03:59:12.104Z,20.40
2023-10-12T04:01:43.070Z,20.40
2023-10-12T04:04:20.965Z,20.50
2023-10-12T04:07:06.343Z,20.90
2023-10-12T04:09:43.504Z,20.60
2023-10-12T04:12:32.516Z,20.80
2023-10-12T04:15:06.810Z,21.20
2023-10-12T04:17:49.513Z,20.90
2023-10-12T04:20:22.761Z,20.90
2023-10-12T04:23:35.611Z,21.00
2023-10-12T04:26:23.449Z,21.20
2023-10-12T04:28:54.268Z,21.10
2023-10-12T04:31:35.561Z,21.10
2023-10-12T04:34:08.355Z,21.20
2023-10-12T04:36:45.893Z,21.20
2023-10-12T04:39:25.561Z,21.20
2023-10-12T04:42:13.026Z,21.20
2023-10-12T04:44:53.617Z,21.30
2023-10-12T04:47:24.849Z,21.30
2023-10-12T04:49:56.137Z,21.30
2023-10-12T04:52:34.019Z,21.30
2023-10-12T04:55:23.504Z,21.30
2023-10-12T04:58:11.285Z,21.40
2023-10-12T05:00:53.528Z,21.40
2023-10-12T05:03:34.378Z,21.30
2023-10-12T05:06:06.177Z,21.40
2023-10-12T05:08:36.953Z,21.40
2023-10-12T05:11:09.670Z,21.40
2023-10-12T05:13:44.283Z,21.30
2023-10-12T05:16:15.793Z,21.30
2023-10-12T05:18:48.635Z,21.30
2023-10-12T05:21:17.300Z,21.30
2023-10-12T05:23:45.644Z,21.30
2023-10-12T05:26:15.313Z,21.30
2023-10-12T05:28:59.107Z,21.30
2023-10-12T05:31:29.687Z,21.30
2023-10-12T05:34:19.379Z,21.30
2023-10-12T05:36:47.774Z,21.30
2023-10-12T05:39:16.076Z,21.30
2023-10-12T05:41:46.039Z,21.30
2023-10-12T05:44:26.804Z,21.30
2023-10-12T05:47:00.593Z,21.30
2023-10-12T05:49:34.511Z,21.30
2023-10-12T05:52:06.454Z,21.30
2023-10-12T05:54:35.351Z,21.30
2023-10-12T05:57:08.335Z,21.30
2023-10-12T05:59:39.555Z,21.50
2023-10-12T06:02:10.652Z,21.30
2023-10-12T06:04:41.178Z,21.30
2023-10-12T06:07:09.489Z,21.30
2023-10-12T06:09:38.633Z,21.30
2023-10-12T06:12:08.881Z,21.30
2023-10-12T06:14:39.403Z,21.30
2023-10-12T06:17:08.574Z,21.30
2023-10-12T06:19:37.874Z,21.30
2023-10-12T06:22:21.151Z,21.70
2023-10-12T06:24:53.583Z,21.40
2023-10-12T06:27:25.247Z,21.40
2023-10-12T06:29:55.403Z,21.40
2023-10-12T06:32:33.197Z,21.40
2023-10-12T06:35:14.676Z,21.50
2023-10-12T06:41:27.960Z,21.40
2023-10-12T06:43:59.062Z,21.50
2023-10-12T06:46:29.843Z,21.50
2023-10-12T06:49:02.078Z,21.50
2023-10-12T06:51:32.115Z,21.50
2023-10-12T06:54:19.231Z,21.50
2023-10-12T06:56:52.842Z,21.70
2023-10-12T06:59:36.255Z,22.00
2023-10-12T07:02:10.919Z,21.60
2023-10-12T07:04:51.088Z,21.60
2023-10-12T07:07:18.410Z,21.60
2023-10-12T07:09:47.868Z,21.70
2023-10-12T07:12:19.520Z,21.60
2023-10-12T07:14:49.140Z,21.60
2023-10-12T07:17:18.306Z,21.60
2023-10-12T07:19:50.905Z,21.70
2023-10-12T07:22:20.297Z,21.70
2023-10-12T07:24:53.955Z,21.70
2023-10-12T07:27:24.357Z,21.70
2023-10-12T07:30:16.239Z,21.70
2023-10-12T07:32:56.016Z,21.70
2023-10-12T07:35:35.924Z,21.70
2023-10-12T07:38:13.595Z,21.70
2023-10-12T07:40:53.642Z,21.60
2023-10-12T07:43:25.303Z,21.70
2023-10-12T07:45:55.310Z,21.70
2023-10-12T07:48:31.147Z,21.70
2023-10-12T07:51:16.598Z,21.70
2023-10-12T07:53:45.024Z,21.60
2023-10-12T07:56:17.325Z,21.60
2023-10-12T07:58:52.335Z,21.60
2023-10-12T08:01:27.637Z,21.60
2023-10-12T08:04:00.063Z,21.60
2023-10-12T08:06:37.923Z,21.60
2023-10-12T08:09:22.240Z,21.50
2023-10-12T08:11:50.560Z,21.60
2023-10-12T08:14:40.598Z,21.60
2023-10-12T08:17:30.761Z,22.00
2023-10-12T08:20:18.030Z,21.50
2023-10-12T08:22:47.432Z,21.50
2023-10-12T08:25:16.597Z,21.50
2023-10-12T08:27:53.661Z,21.50
2023-10-12T08:30:28.093Z,21.50
2023-10-12T08:33:00.515Z,21.50
2023-10-12T08:35:38.508Z,21.50
2023-10-12T08:38:13.840Z,21.50
2023-10-12T08:41:17.435Z,21.50
2023-10-12T08:43:51.988Z,21.50
2023-10-12T08:46:57.498Z,21.50
2023-10-12T08:49:53.867Z,21.50
2023-10-12T08:52:32.572Z,21.50
2023-10-12T08:55:09.174Z,21.40
2023-10-12T08:57:45.629Z,21.50
2023-10-12T09:00:42.673Z,21.40
2023-10-12T09:03:30.704Z,21.40
2023-10-12T09:05:59.862Z,21.40
2023-10-12T09:08:42.412Z,21.40
2023-10-12T09:11:17.917Z,21.40
2023-10-12T09:13:46.776Z,21.40
2023-10-12T09:16:16.973Z,21.40
2023-10-12T09:18:48.071Z,21.40
2023-10-12T09:21:25.192Z,21.30
2023-10-12T09:24:00.155Z,21.30
2023-10-12T09:26:35.047Z,21.30
2023-10-12T09:29:13.195Z,21.30
2023-10-12T09:31:55.755Z,21.20
2023-10-12T09:34:44.048Z,21.20
2023-10-12T09:37:21.957Z,21.20
2023-10-12T09:39:50.616Z,21.20
2023-10-12T09:42:31.506Z,21.20
2023-10-12T09:45:21.312Z,21.20
2023-10-12T09:47:59.432Z,21.10
2023-10-12T09:50:34.249Z,21.40
2023-10-12T09:53:15.131Z,21.10
2023-10-12T09:56:03.985Z,21.20
2023-10-12T09:58:35.372Z,21.20
2023-10-12T10:01:08.702Z,21.20
2023-10-12T10:03:43.356Z,21.20
2023-10-12T10:06:29.700Z,21.20
2023-10-12T10:09:11.672Z,21.20
2023-10-12T10:11:41.597Z,21.20
2023-10-12T10:14:14.901Z,21.20
2023-10-12T10:16:48.850Z,21.20
2023-10-12T10:19:18.232Z,21.20
2023-10-12T10:21:53.640Z,21.20
2023-10-12T10:24:26.631Z,21.20
2023-10-12T10:26:59.494Z,21.20
2023-10-12T10:29:47.156Z,21.20
2023-10-12T10:32:17.492Z,21.20
2023-10-12T10:34:45.955Z,21.10
2023-10-12T10:37:39.505Z,21.10
2023-10-12T10:40:11.531Z,21.00
2023-10-12T10:42:46.265Z,21.00
2023-10-12T10:45:16.912Z,21.00
2023-10-12T10:48:12.998Z,21.00
2023-10-12T10:50:44.883Z,20.90
2023-10-12T10:53:16.892Z,20.90
2023-10-12T10:55:48.221Z,20.90
2023-10-12T10:58:18.380Z,20.90
2023-10-12T11:00:47.395Z,20.90
2023-10-12T11:03:17.920Z,20.90
2023-10-12T11:05:48.021Z,20.90
2023-10-12T11:08:27.983Z,20.80
2023-10-12T11:11:10.992Z,20.90
2023-10-12T11:13:40.481Z,20.80
2023-10-12T11:16:22.837Z,21.00
2023-10-12T11:18:53.209Z,20.90
2023-10-12T11:21:21.644Z,20.90
2023-10-12T11:23:52.285Z,20.90
2023-10-12T11:26:20.581Z,21.60
2023-10-12T11:29:03.291Z,20.90
2023-10-12T11:31:32.713Z,20.90
2023-10-12T11:34:08.493Z,20.90
2023-10-12T11:36:37.969Z,20.90
2023-10-12T11:39:17.841Z,20.90
2023-10-12T11:42:05.629Z,20.90
2023-10-12T11:44:34.529Z,20.90
2023-10-12T11:47:07.861Z,20.90
2023-10-12T11:49:52.881Z,20.80
2023-10-12T11:52:31.415Z,20.90
2023-10-12T11:55:07.959Z,20.80
2023-10-12T11:57:41.751Z,20.90
2023-10-12T12:00:22.031Z,20.80
2023-10-12T12:02:54.111Z,20.80
2023-10-12T12:05:24.125Z,20.80
2023-10-12T12:07:53.729Z,20.80
2023-10-12T12:10:30.773Z,20.80
2023-10-12T12:12:59.673Z,20.80
2023-10-12T12:15:27.886Z,20.80
2023-10-12T12:17:56.110Z,21.00
2023-10-12T12:20:24.362Z,21.50
2023-10-12T12:22:58.873Z,20.80
2023-10-12T12:25:34.027Z,20.80
2023-10-12T12:28:03.761Z,20.90
2023-10-12T12:30:50.695Z,20.80
2023-10-12T12:33:22.000Z,21.00
2023-10-12T12:36:00.784Z,20.80
2023-10-12T12:38:48.781Z,20.70
2023-10-12T12:41:21.285Z,20.80
2023-10-12T12:43:50.664Z,21.00
2023-10-12T12:46:20.393Z,20.70
2023-10-12T12:48:52.530Z,20.80
2023-10-12T12:51:22.000Z,20.80
2023-10-12T12:53:54.042Z,20.80
2023-10-12T12:56:26.278Z,20.90
2023-10-12T12:58:55.880Z,20.70
2023-10-12T13:01:26.239Z,20.70
2023-10-12T13:03:56.370Z,20.70
2023-10-12T13:06:25.424Z,20.70
2023-10-12T13:08:53.721Z,20.70
2023-10-12T13:11:24.187Z,20.70
2023-10-12T13:13:52.436Z,20.70
2023-10-12T13:16:20.681Z,20.70
2023-10-12T13:18:49.538Z,21.30
2023-10-12T13:21:18.707Z,20.70
2023-10-12T13:23:47.929Z,20.70
2023-10-12T13:26:20.674Z,20.70
2023-10-12T13:28:50.341Z,20.70
2023-10-12T13:31:18.624Z,20.60
2023-10-12T13:33:48.909Z,20.60
2023-10-12T13:36:19.258Z,20.60
2023-10-12T13:38:47.840Z,20.60
2023-10-12T13:41:18.687Z,20.60
2023-10-12T13:43:49.588Z,20.60
2023-10-12T13:46:19.367Z,20.60
2023-10-12T13:48:50.332Z,21.50
2023-10-12T13:51:21.529Z,20.60
2023-10-12T13:53:52.077Z,20.60
2023-10-12T13:56:25.013Z,20.60
2023-10-12T13:58:59.199Z,20.60
2023-10-12T14:01:34.439Z,20.60
2023-10-12T14:04:03.484Z,20.60
2023-10-12T14:06:32.511Z,20.60
2023-10-12T14:09:01.032Z,20.60
2023-10-12T14:11:29.362Z,20.60
2023-10-12T14:14:03.030Z,20.60
2023-10-12T14:16:34.259Z,20.60
2023-10-12T14:19:03.709Z,20.60
2023-10-12T14:21:32.008Z,20.50
2023-10-12T14:24:04.021Z,21.00
2023-10-12T14:26:36.302Z,20.60
2023-10-12T14:29:07.037Z,20.80
2023-10-12T14:31:36.811Z,20.60
2023-10-12T14:34:07.975Z,20.70
2023-10-12T14:36:39.794Z,20.50
2023-10-12T14:39:13.751Z,20.60
2023-10-12T14:41:41.919Z,20.50
2023-10-12T14:44:12.840Z,20.50
2023-10-12T14:46:42.502Z,20.60
2023-10-12T14:49:12.269Z,20.50
2023-10-12T14:51:40.455Z,20.50
2023-10-12T14:54:08.787Z,20.50
2023-10-12T14:56:39.288Z,20.60
2023-10-12T14:59:07.564Z,20.50
2023-10-12T15:01:35.766Z,20.50
2023-10-12T15:04:08.648Z,20.60
2023-10-12T15:06:37.377Z,20.50
2023-10-12T15:09:05.851Z,20.60
2023-10-12T15:11:35.689Z,20.60
2023-10-12T15:14:07.190Z,20.60
2023-10-12T15:16:35.631Z,20.50
2023-10-12T15:19:17.795Z,20.60
2023-10-12T15:21:46.610Z,20.50
2023-10-12T15:24:15.830Z,20.50
2023-10-12T15:26:44.575Z,20.60
2023-10-12T15:29:12.889Z,20.60
2023-10-12T15:31:41.609Z,20.50
2023-10-12T15:34:14.504Z,20.60
2023-10-12T15:36:45.624Z,20.50
2023-10-12T15:39:17.358Z,20.60
2023-10-12T15:41:46.525Z,20.50
2023-10-12T15:44:14.911Z,20.50
2023-10-12T15:46:43.174Z,20.50
2023-10-12T15:49:13.761Z,20.50
2023-10-12T15:51:42.039Z,20.50
2023-10-12T15:54:13.189Z,20.50
2023-10-12T15:56:41.583Z,20.40
2023-10-12T15:59:11.007Z,20.50
2023-10-12T16:01:40.247Z,20.50
2023-10-12T16:04:09.531Z,20.50
2023-10-12T16:06:39.239Z,20.40
2023-10-12T16:09:10.786Z,20.40
2023-10-12T16:11:42.197Z,20.40
2023-10-12T16:14:10.770Z,20.40
2023-10-12T16:16:39.021Z,20.30
2023-10-12T16:19:07.435Z,20.30
2023-10-12T16:21:36.457Z,20.30
2023-10-12T16:24:08.011Z,20.20
2023-10-12T16:26:36.477Z,20.20
2023-10-12T16:29:08.316Z,20.20
2023-10-12T16:31:37.085Z,20.20
2023-10-12T16:34:07.949Z,20.20
2023-10-12T16:36:36.910Z,20.10
2023-10-12T16:39:07.628Z,20.10
2023-10-12T16:41:36.089Z,20.10
2023-10-12T16:44:04.424Z,20.00
2023-10-12T16:46:33.338Z,20.00
2023-10-12T16:49:02.004Z,20.00
2023-10-12T16:51:30.179Z,19.90
2023-10-12T16:53:58.365Z,19.90
2023-10-12T16:56:27.985Z,19.90
2023-10-12T16:58:56.113Z,19.90
2023-10-12T17:01:25.196Z,19.80
2023-10-12T17:03:53.572Z,19.80
2023-10-12T17:06:21.968Z,19.80
2023-10-12T17:08:51.059Z,19.80
2023-10-12T17:11:19.241Z,19.80
2023-10-12T17:13:48.793Z,19.70
2023-10-12T17:16:17.043Z,19.70
2023-10-12T17:18:47.109Z,19.70
2023-10-12T17:21:15.318Z,19.60
2023-10-12T17:23:46.480Z,19.60
2023-10-12T17:26:14.672Z,19.60
2023-10-12T17:28:42.968Z,19.50
2023-10-12T17:31:13.904Z,19.50
2023-10-12T17:33:43.531Z,19.50
2023-10-12T17:36:12.721Z,19.50
2023-10-12T17:38:41.459Z,19.40
2023-10-12T17:41:10.484Z,19.40
2023-10-12T17:43:41.639Z,19.40
2023-10-12T17:46:12.272Z,19.40
2023-10-12T17:48:41.246Z,19.30
2023-10-12T17:51:17.792Z,19.30
2023-10-12T17:53:49.514Z,19.30
2023-10-12T17:56:19.047Z,19.20
2023-10-12T17:58:47.833Z,19.20
2023-10-12T18:01:17.483Z,19.20
2023-10-12T18:03:45.768Z,19.20
2023-10-12T18:06:14.149Z,19.20
2023-10-12T18:08:44.615Z,19.20
2023-10-12T18:11:15.563Z,19.20
2023-10-12T18:13:44.922Z,19.20
2023-10-12T18:16:14.873Z,19.20
2023-10-12T18:18:44.794Z,19.20
2023-10-12T18:21:13.051Z,19.20
2023-10-12T18:23:41.699Z,19.20
2023-10-12T18:26:11.208Z,19.40
2023-10-12T18:28:40.702Z,19.20
2023-10-12T18:31:11.415Z,19.10
2023-10-12T18:33:42.247Z,19.10
2023-10-12T18:36:12.717Z,19.10
2023-10-12T18:38:44.079Z,19.10
2023-10-12T18:41:16.749Z,19.20
2023-10-12T18:43:49.587Z,19.10
2023-10-12T18:46:21.189Z,19.10
2023-10-12T18:48:51.156Z,19.10
2023-10-12T18:51:21.964Z,19.10
2023-10-12T18:53:51.501Z,19.00
2023-10-12T18:56:21.459Z,19.00
2023-10-12T18:58:50.638Z,19.00
2023-10-12T19:01:20.652Z,19.00
2023-10-12T19:03:48.979Z,19.00
2023-10-12T19:06:17.163Z,19.00
2023-10-12T19:08:46.693Z,19.00
2023-10-12T19:11:14.889Z,19.00
2023-10-12T19:13:45.083Z,19.00
2023-10-12T19:16:14.487Z,19.00
2023-10-12T19:18:43.126Z,19.00
2023-10-12T19:21:11.486Z,19.00
2023-10-12T19:23:39.660Z,18.90
2023-10-12T19:26:09.308Z,18.90
2023-10-12T19:28:37.797Z,19.80
2023-10-12T19:31:09.677Z,18.90
2023-10-12T19:33:39.952Z,18.90
2023-10-12T19:36:10.176Z,18.90
2023-10-12T19:38:40.215Z,18.90
2023-10-12T19:41:11.205Z,18.90
2023-10-12T19:43:40.591Z,18.90
2023-10-12T19:46:11.912Z,18.90
2023-10-12T19:48:41.344Z,18.90
2023-10-12T19:51:13.540Z,18.90
2023-10-12T19:53:43.166Z,18.90
2023-10-12T19:56:15.641Z,18.80
2023-10-12T19:58:44.407Z,18.90
2023-10-12T20:01:15.435Z,18.80
2023-10-12T20:03:46.604Z,18.90
2023-10-12T20:06:15.450Z,18.80
2023-10-12T20:08:47.504Z,18.80
2023-10-12T20:11:18.333Z,18.80
2023-10-12T20:13:49.402Z,18.80
2023-10-12T20:16:22.243Z,18.80
2023-10-12T20:18:51.029Z,18.80
2023-10-12T20:21:20.899Z,18.80
2023-10-12T20:23:50.025Z,18.80
2023-10-12T20:26:21.758Z,18.80
2023-10-12T20:28:49.921Z,18.80
2023-10-12T20:31:18.112Z,18.80
2023-10-12T20:33:47.048Z,18.80
2023-10-12T20:36:15.240Z,18.70
2023-10-12T20:38:43.416Z,18.70
2023-10-12T20:41:11.722Z,18.80
2023-10-12T20:43:41.272Z,18.80
2023-10-12T20:46:12.456Z,18.80
2023-10-12T20:48:41.373Z,18.80
2023-10-12T20:51:09.763Z,18.80
2023-10-12T20:53:38.176Z,18.80
2023-10-12T20:56:08.699Z,18.90
2023-10-12T20:58:43.783Z,18.90
2023-10-12T21:01:25.514Z,19.00
2023-10-12T21:03:55.655Z,19.00
2023-10-12T21:06:28.557Z,19.10
2023-10-12T21:09:02.297Z,19.10
2023-10-12T21:11:33.258Z,19.10
2023-10-12T21:14:05.601Z,19.20
2023-10-12T21:16:35.664Z,19.20
2023-10-12T21:19:13.057Z,19.30
2023-10-12T21:21:42.100Z,19.30
2023-10-12T21:24:18.039Z,19.30
2023-10-12T21:26:47.136Z,19.30
2023-10-12T21:29:20.857Z,19.40
2023-10-12T21:31:52.770Z,19.40
2023-10-12T21:34:26.677Z,19.40
2023-10-12T21:36:55.079Z,19.50
2023-10-12T21:39:40.268Z,19.50
2023-10-12T21:42:12.461Z,19.50
2023-10-12T21:44:42.392Z,19.50
2023-10-12T21:47:15.019Z,19.50
2023-10-12T21:49:44.916Z,19.60
2023-10-12T21:52:13.978Z,19.60
2023-10-12T21:54:42.407Z,19.70
2023-10-12T21:57:11.938Z,19.60
2023-10-12T21:59:42.532Z,19.60
2023-10-12T22:02:19.760Z,19.60
2023-10-12T22:04:48.869Z,19.60
2023-10-12T22:07:17.667Z,19.60
2023-10-12T22:09:47.014Z,19.60
2023-10-12T22:12:20.590Z,19.60
2023-10-12T22:15:02.467Z,19.70
2023-10-12T22:17:32.358Z,19.60
2023-10-12T22:20:00.801Z,19.60
2023-10-12T22:22:30.467Z,19.60
2023-10-12T22:24:58.824Z,19.60
2023-10-12T22:27:28.283Z,19.70
2023-10-12T22:29:57.301Z,19.70
2023-10-12T22:32:25.826Z,19.70
2023-10-12T22:34:55.755Z,19.70
2023-10-12T22:37:23.947Z,19.70
2023-10-12T22:39:52.239Z,19.70
2023-10-12T22:42:20.423Z,19.70
2023-10-12T22:44:48.620Z,19.70
2023-10-12T22:47:17.326Z,19.70
2023-10-12T22:49:48.163Z,19.70
2023-10-12T22:52:19.832Z,19.70
2023-10-12T22:54:48.108Z,19.70
2023-10-12T22:57:17.008Z,19.70
2023-10-12T22:59:45.186Z,19.70
2023-10-12T23:02:13.492Z,19.80
2023-10-12T23:04:42.472Z,19.70
2023-10-12T23:07:10.808Z,19.70
2023-10-12T23:09:43.080Z,19.70
2023-10-12T23:12:20.000Z,19.70
2023-10-12T23:14:50.423Z,19.70
2023-10-12T23:17:21.916Z,19.80
2023-10-12T23:19:50.512Z,19.80
2023-10-12T23:22:31.818Z,19.80
2023-10-12T23:25:06.765Z,19.80
2023-10-12T23:27:34.961Z,19.80
2023-10-12T23:30:18.524Z,19.80
2023-10-12T23:32:52.079Z,19.80
2023-10-12T23:35:36.174Z,19.80
2023-10-12T23:38:11.603Z,19.80
2023-10-12T23:40:48.668Z,19.80
2023-10-12T23:43:19.131Z,19.80
2023-10-12T23:45:56.440Z,19.80
2023-10-12T23:48:25.804Z,19.80
2023-10-12T23:51:03.962Z,19.80
2023-10-12T23:53:37.408Z,19.80
2023-10-12T23:56:11.226Z,19.80
2023-10-12T23:58:40.042Z,19.80
